<?xml version="1.0" encoding="UTF-8" ?>
<gpx version="1.1" xmlns:xsi="http://www.w3.org/2001/XMLSchema-instance" 
    xmlns="http://www.topografix.com/GPX/1/1" 
    xsi:schemaLocation="http://www.topografix.com/GPX/1/1 http://www.topografix.com/GPX/1/1/gpx.xsd" 
    creator="Openrunner - https://www.openrunner.com" >	<trk>
						<name>11240400-Balade Verte - Circuit de la forêt - MEB3</name>
						<trkseg>
					<trkpt lat="46.550620" lon="5.158270">
						<ele>184</ele>
						<time>2020-04-28T15:53:36Z</time>
					</trkpt>
					<trkpt lat="46.550740" lon="5.157960">
						<ele>186</ele>
						<time>2020-04-28T15:54:09Z</time>
					</trkpt>
					<trkpt lat="46.550930" lon="5.157550">
						<ele>188</ele>
						<time>2020-04-28T15:54:54Z</time>
					</trkpt>
					<trkpt lat="46.550960" lon="5.157400">
						<ele>188</ele>
						<time>2020-04-28T15:55:08Z</time>
					</trkpt>
					<trkpt lat="46.550950" lon="5.157300">
						<ele>189</ele>
						<time>2020-04-28T15:55:18Z</time>
					</trkpt>
					<trkpt lat="46.550900" lon="5.157230">
						<ele>189</ele>
						<time>2020-04-28T15:55:27Z</time>
					</trkpt>
					<trkpt lat="46.550700" lon="5.157090">
						<ele>189</ele>
						<time>2020-04-28T15:55:57Z</time>
					</trkpt>
					<trkpt lat="46.550670" lon="5.157030">
						<ele>189</ele>
						<time>2020-04-28T15:56:03Z</time>
					</trkpt>
					<trkpt lat="46.550700" lon="5.156800">
						<ele>189</ele>
						<time>2020-04-28T15:56:25Z</time>
					</trkpt>
					<trkpt lat="46.550860" lon="5.156220">
						<ele>192</ele>
						<time>2020-04-28T15:57:22Z</time>
					</trkpt>
					<trkpt lat="46.550920" lon="5.156030">
						<ele>192</ele>
						<time>2020-04-28T15:57:41Z</time>
					</trkpt>
					<trkpt lat="46.550940" lon="5.155980">
						<ele>192</ele>
						<time>2020-04-28T15:57:47Z</time>
					</trkpt>
					<trkpt lat="46.551040" lon="5.155730">
						<ele>193</ele>
						<time>2020-04-28T15:58:13Z</time>
					</trkpt>
					<trkpt lat="46.551150" lon="5.155420">
						<ele>194</ele>
						<time>2020-04-28T15:58:45Z</time>
					</trkpt>
					<trkpt lat="46.551390" lon="5.154490">
						<ele>197</ele>
						<time>2020-04-28T16:00:16Z</time>
					</trkpt>
					<trkpt lat="46.551420" lon="5.154410">
						<ele>197</ele>
						<time>2020-04-28T16:00:25Z</time>
					</trkpt>
					<trkpt lat="46.551480" lon="5.154340">
						<ele>198</ele>
						<time>2020-04-28T16:00:35Z</time>
					</trkpt>
					<trkpt lat="46.551620" lon="5.154310">
						<ele>198</ele>
						<time>2020-04-28T16:00:54Z</time>
					</trkpt>
					<trkpt lat="46.551960" lon="5.154240">
						<ele>198</ele>
						<time>2020-04-28T16:01:40Z</time>
					</trkpt>
					<trkpt lat="46.552060" lon="5.154230">
						<ele>198</ele>
						<time>2020-04-28T16:01:53Z</time>
					</trkpt>
					<trkpt lat="46.552330" lon="5.154280">
						<ele>198</ele>
						<time>2020-04-28T16:02:29Z</time>
					</trkpt>
					<trkpt lat="46.552480" lon="5.154220">
						<ele>198</ele>
						<time>2020-04-28T16:02:50Z</time>
					</trkpt>
					<trkpt lat="46.552810" lon="5.153750">
						<ele>199</ele>
						<time>2020-04-28T16:03:52Z</time>
					</trkpt>
					<trkpt lat="46.552890" lon="5.153680">
						<ele>199</ele>
						<time>2020-04-28T16:04:04Z</time>
					</trkpt>
					<trkpt lat="46.552960" lon="5.153660">
						<ele>199</ele>
						<time>2020-04-28T16:04:14Z</time>
					</trkpt>
					<trkpt lat="46.553030" lon="5.153670">
						<ele>199</ele>
						<time>2020-04-28T16:04:23Z</time>
					</trkpt>
					<trkpt lat="46.553130" lon="5.153710">
						<ele>199</ele>
						<time>2020-04-28T16:04:37Z</time>
					</trkpt>
					<trkpt lat="46.553220" lon="5.153710">
						<ele>199</ele>
						<time>2020-04-28T16:04:49Z</time>
					</trkpt>
					<trkpt lat="46.553140" lon="5.153350">
						<ele>200</ele>
						<time>2020-04-28T16:05:24Z</time>
					</trkpt>
					<trkpt lat="46.553070" lon="5.152960">
						<ele>200</ele>
						<time>2020-04-28T16:06:01Z</time>
					</trkpt>
					<trkpt lat="46.552890" lon="5.151450">
						<ele>198</ele>
						<time>2020-04-28T16:08:21Z</time>
					</trkpt>
					<trkpt lat="46.552880" lon="5.151180">
						<ele>198</ele>
						<time>2020-04-28T16:08:46Z</time>
					</trkpt>
					<trkpt lat="46.552820" lon="5.149560">
						<ele>193</ele>
						<time>2020-04-28T16:11:15Z</time>
					</trkpt>
					<trkpt lat="46.552790" lon="5.148850">
						<ele>191</ele>
						<time>2020-04-28T16:12:20Z</time>
					</trkpt>
					<trkpt lat="46.552900" lon="5.148830">
						<ele>191</ele>
						<time>2020-04-28T16:12:35Z</time>
					</trkpt>
					<trkpt lat="46.553090" lon="5.148800">
						<ele>191</ele>
						<time>2020-04-28T16:13:01Z</time>
					</trkpt>
					<trkpt lat="46.553260" lon="5.148810">
						<ele>191</ele>
						<time>2020-04-28T16:13:23Z</time>
					</trkpt>
					<trkpt lat="46.553340" lon="5.148790">
						<ele>191</ele>
						<time>2020-04-28T16:13:34Z</time>
					</trkpt>
					<trkpt lat="46.553380" lon="5.148760">
						<ele>191</ele>
						<time>2020-04-28T16:13:40Z</time>
					</trkpt>
					<trkpt lat="46.553420" lon="5.148650">
						<ele>191</ele>
						<time>2020-04-28T16:13:52Z</time>
					</trkpt>
					<trkpt lat="46.553450" lon="5.148510">
						<ele>190</ele>
						<time>2020-04-28T16:14:05Z</time>
					</trkpt>
					<trkpt lat="46.553520" lon="5.148300">
						<ele>190</ele>
						<time>2020-04-28T16:14:26Z</time>
					</trkpt>
					<trkpt lat="46.553680" lon="5.147920">
						<ele>190</ele>
						<time>2020-04-28T16:15:07Z</time>
					</trkpt>
					<trkpt lat="46.553810" lon="5.147650">
						<ele>191</ele>
						<time>2020-04-28T16:15:38Z</time>
					</trkpt>
					<trkpt lat="46.553900" lon="5.147510">
						<ele>191</ele>
						<time>2020-04-28T16:15:55Z</time>
					</trkpt>
					<trkpt lat="46.554030" lon="5.147010">
						<ele>193</ele>
						<time>2020-04-28T16:16:44Z</time>
					</trkpt>
					<trkpt lat="46.554070" lon="5.146750">
						<ele>194</ele>
						<time>2020-04-28T16:17:09Z</time>
					</trkpt>
					<trkpt lat="46.554040" lon="5.146650">
						<ele>195</ele>
						<time>2020-04-28T16:17:19Z</time>
					</trkpt>
					<trkpt lat="46.554100" lon="5.146330">
						<ele>196</ele>
						<time>2020-04-28T16:17:49Z</time>
					</trkpt>
					<trkpt lat="46.554130" lon="5.146290">
						<ele>196</ele>
						<time>2020-04-28T16:17:55Z</time>
					</trkpt>
					<trkpt lat="46.554370" lon="5.146470">
						<ele>196</ele>
						<time>2020-04-28T16:18:31Z</time>
					</trkpt>
					<trkpt lat="46.554520" lon="5.146470">
						<ele>196</ele>
						<time>2020-04-28T16:18:51Z</time>
					</trkpt>
					<trkpt lat="46.554680" lon="5.146240">
						<ele>197</ele>
						<time>2020-04-28T16:19:21Z</time>
					</trkpt>
					<trkpt lat="46.554950" lon="5.145710">
						<ele>199</ele>
						<time>2020-04-28T16:20:21Z</time>
					</trkpt>
					<trkpt lat="46.555020" lon="5.145550">
						<ele>200</ele>
						<time>2020-04-28T16:20:39Z</time>
					</trkpt>
					<trkpt lat="46.555190" lon="5.145540">
						<ele>200</ele>
						<time>2020-04-28T16:21:01Z</time>
					</trkpt>
					<trkpt lat="46.555320" lon="5.145560">
						<ele>200</ele>
						<time>2020-04-28T16:21:19Z</time>
					</trkpt>
					<trkpt lat="46.555490" lon="5.145430">
						<ele>200</ele>
						<time>2020-04-28T16:21:44Z</time>
					</trkpt>
					<trkpt lat="46.555850" lon="5.145690">
						<ele>199</ele>
						<time>2020-04-28T16:22:38Z</time>
					</trkpt>
					<trkpt lat="46.555950" lon="5.145790">
						<ele>199</ele>
						<time>2020-04-28T16:22:54Z</time>
					</trkpt>
					<trkpt lat="46.556270" lon="5.145920">
						<ele>200</ele>
						<time>2020-04-28T16:23:39Z</time>
					</trkpt>
					<trkpt lat="46.556370" lon="5.145930">
						<ele>200</ele>
						<time>2020-04-28T16:23:52Z</time>
					</trkpt>
					<trkpt lat="46.556860" lon="5.145920">
						<ele>201</ele>
						<time>2020-04-28T16:24:57Z</time>
					</trkpt>
					<trkpt lat="46.556980" lon="5.145960">
						<ele>201</ele>
						<time>2020-04-28T16:25:14Z</time>
					</trkpt>
					<trkpt lat="46.557070" lon="5.145980">
						<ele>201</ele>
						<time>2020-04-28T16:25:26Z</time>
					</trkpt>
					<trkpt lat="46.557170" lon="5.146030">
						<ele>201</ele>
						<time>2020-04-28T16:25:40Z</time>
					</trkpt>
					<trkpt lat="46.557260" lon="5.146160">
						<ele>201</ele>
						<time>2020-04-28T16:25:57Z</time>
					</trkpt>
					<trkpt lat="46.557770" lon="5.147210">
						<ele>202</ele>
						<time>2020-04-28T16:27:55Z</time>
					</trkpt>
					<trkpt lat="46.557930" lon="5.147450">
						<ele>202</ele>
						<time>2020-04-28T16:28:26Z</time>
					</trkpt>
					<trkpt lat="46.558220" lon="5.147750">
						<ele>202</ele>
						<time>2020-04-28T16:29:13Z</time>
					</trkpt>
					<trkpt lat="46.558490" lon="5.146970">
						<ele>203</ele>
						<time>2020-04-28T16:30:33Z</time>
					</trkpt>
					<trkpt lat="46.559040" lon="5.145210">
						<ele>202</ele>
						<time>2020-04-28T16:33:31Z</time>
					</trkpt>
					<trkpt lat="46.559400" lon="5.144070">
						<ele>202</ele>
						<time>2020-04-28T16:35:26Z</time>
					</trkpt>
					<trkpt lat="46.559750" lon="5.142950">
						<ele>202</ele>
						<time>2020-04-28T16:37:19Z</time>
					</trkpt>
					<trkpt lat="46.559870" lon="5.142590">
						<ele>201</ele>
						<time>2020-04-28T16:37:55Z</time>
					</trkpt>
					<trkpt lat="46.559900" lon="5.142420">
						<ele>201</ele>
						<time>2020-04-28T16:38:11Z</time>
					</trkpt>
					<trkpt lat="46.559920" lon="5.142230">
						<ele>201</ele>
						<time>2020-04-28T16:38:29Z</time>
					</trkpt>
					<trkpt lat="46.559920" lon="5.141940">
						<ele>202</ele>
						<time>2020-04-28T16:38:56Z</time>
					</trkpt>
					<trkpt lat="46.559870" lon="5.141590">
						<ele>202</ele>
						<time>2020-04-28T16:39:28Z</time>
					</trkpt>
					<trkpt lat="46.559870" lon="5.141240">
						<ele>202</ele>
						<time>2020-04-28T16:40:01Z</time>
					</trkpt>
					<trkpt lat="46.559890" lon="5.140840">
						<ele>202</ele>
						<time>2020-04-28T16:40:37Z</time>
					</trkpt>
					<trkpt lat="46.560080" lon="5.139450">
						<ele>202</ele>
						<time>2020-04-28T16:42:47Z</time>
					</trkpt>
					<trkpt lat="46.560170" lon="5.138750">
						<ele>203</ele>
						<time>2020-04-28T16:43:53Z</time>
					</trkpt>
					<trkpt lat="46.559560" lon="5.137970">
						<ele>203</ele>
						<time>2020-04-28T16:45:41Z</time>
					</trkpt>
					<trkpt lat="46.559430" lon="5.137860">
						<ele>203</ele>
						<time>2020-04-28T16:46:01Z</time>
					</trkpt>
					<trkpt lat="46.559320" lon="5.137800">
						<ele>202</ele>
						<time>2020-04-28T16:46:17Z</time>
					</trkpt>
					<trkpt lat="46.559190" lon="5.137810">
						<ele>202</ele>
						<time>2020-04-28T16:46:34Z</time>
					</trkpt>
					<trkpt lat="46.559030" lon="5.137820">
						<ele>202</ele>
						<time>2020-04-28T16:46:56Z</time>
					</trkpt>
					<trkpt lat="46.558650" lon="5.137830">
						<ele>201</ele>
						<time>2020-04-28T16:47:46Z</time>
					</trkpt>
					<trkpt lat="46.558570" lon="5.137820">
						<ele>201</ele>
						<time>2020-04-28T16:47:57Z</time>
					</trkpt>
					<trkpt lat="46.558180" lon="5.137670">
						<ele>201</ele>
						<time>2020-04-28T16:48:51Z</time>
					</trkpt>
					<trkpt lat="46.558050" lon="5.137640">
						<ele>201</ele>
						<time>2020-04-28T16:49:08Z</time>
					</trkpt>
					<trkpt lat="46.557870" lon="5.137630">
						<ele>201</ele>
						<time>2020-04-28T16:49:32Z</time>
					</trkpt>
					<trkpt lat="46.557730" lon="5.137650">
						<ele>201</ele>
						<time>2020-04-28T16:49:51Z</time>
					</trkpt>
					<trkpt lat="46.557640" lon="5.137670">
						<ele>201</ele>
						<time>2020-04-28T16:50:03Z</time>
					</trkpt>
					<trkpt lat="46.557360" lon="5.137820">
						<ele>200</ele>
						<time>2020-04-28T16:50:43Z</time>
					</trkpt>
					<trkpt lat="46.557160" lon="5.137900">
						<ele>199</ele>
						<time>2020-04-28T16:51:11Z</time>
					</trkpt>
					<trkpt lat="46.557030" lon="5.137950">
						<ele>199</ele>
						<time>2020-04-28T16:51:29Z</time>
					</trkpt>
					<trkpt lat="46.556920" lon="5.137930">
						<ele>199</ele>
						<time>2020-04-28T16:51:44Z</time>
					</trkpt>
					<trkpt lat="46.556740" lon="5.137890">
						<ele>198</ele>
						<time>2020-04-28T16:52:08Z</time>
					</trkpt>
					<trkpt lat="46.556520" lon="5.137820">
						<ele>198</ele>
						<time>2020-04-28T16:52:38Z</time>
					</trkpt>
					<trkpt lat="46.556290" lon="5.137750">
						<ele>197</ele>
						<time>2020-04-28T16:53:09Z</time>
					</trkpt>
					<trkpt lat="46.556150" lon="5.137730">
						<ele>196</ele>
						<time>2020-04-28T16:53:28Z</time>
					</trkpt>
					<trkpt lat="46.555770" lon="5.137760">
						<ele>194</ele>
						<time>2020-04-28T16:54:19Z</time>
					</trkpt>
					<trkpt lat="46.555650" lon="5.137720">
						<ele>194</ele>
						<time>2020-04-28T16:54:35Z</time>
					</trkpt>
					<trkpt lat="46.555450" lon="5.137570">
						<ele>193</ele>
						<time>2020-04-28T16:55:05Z</time>
					</trkpt>
					<trkpt lat="46.555070" lon="5.137160">
						<ele>191</ele>
						<time>2020-04-28T16:56:09Z</time>
					</trkpt>
					<trkpt lat="46.554870" lon="5.137020">
						<ele>191</ele>
						<time>2020-04-28T16:56:38Z</time>
					</trkpt>
					<trkpt lat="46.554570" lon="5.136840">
						<ele>192</ele>
						<time>2020-04-28T16:57:21Z</time>
					</trkpt>
					<trkpt lat="46.554370" lon="5.136770">
						<ele>193</ele>
						<time>2020-04-28T16:57:49Z</time>
					</trkpt>
					<trkpt lat="46.554080" lon="5.136760">
						<ele>194</ele>
						<time>2020-04-28T16:58:28Z</time>
					</trkpt>
					<trkpt lat="46.553800" lon="5.136910">
						<ele>195</ele>
						<time>2020-04-28T16:59:07Z</time>
					</trkpt>
					<trkpt lat="46.553610" lon="5.137120">
						<ele>195</ele>
						<time>2020-04-28T16:59:39Z</time>
					</trkpt>
					<trkpt lat="46.553480" lon="5.137300">
						<ele>195</ele>
						<time>2020-04-28T17:00:03Z</time>
					</trkpt>
					<trkpt lat="46.553370" lon="5.137350">
						<ele>195</ele>
						<time>2020-04-28T17:00:19Z</time>
					</trkpt>
					<trkpt lat="46.553160" lon="5.137320">
						<ele>196</ele>
						<time>2020-04-28T17:00:47Z</time>
					</trkpt>
					<trkpt lat="46.553030" lon="5.137300">
						<ele>196</ele>
						<time>2020-04-28T17:01:04Z</time>
					</trkpt>
					<trkpt lat="46.552910" lon="5.137230">
						<ele>196</ele>
						<time>2020-04-28T17:01:21Z</time>
					</trkpt>
					<trkpt lat="46.552760" lon="5.137080">
						<ele>196</ele>
						<time>2020-04-28T17:01:46Z</time>
					</trkpt>
					<trkpt lat="46.552690" lon="5.136920">
						<ele>196</ele>
						<time>2020-04-28T17:02:03Z</time>
					</trkpt>
					<trkpt lat="46.552590" lon="5.136830">
						<ele>195</ele>
						<time>2020-04-28T17:02:19Z</time>
					</trkpt>
					<trkpt lat="46.552490" lon="5.136850">
						<ele>195</ele>
						<time>2020-04-28T17:02:32Z</time>
					</trkpt>
					<trkpt lat="46.552380" lon="5.136900">
						<ele>195</ele>
						<time>2020-04-28T17:02:48Z</time>
					</trkpt>
					<trkpt lat="46.552260" lon="5.136920">
						<ele>195</ele>
						<time>2020-04-28T17:03:04Z</time>
					</trkpt>
					<trkpt lat="46.552130" lon="5.136910">
						<ele>195</ele>
						<time>2020-04-28T17:03:21Z</time>
					</trkpt>
					<trkpt lat="46.552010" lon="5.136890">
						<ele>195</ele>
						<time>2020-04-28T17:03:37Z</time>
					</trkpt>
					<trkpt lat="46.551890" lon="5.136920">
						<ele>195</ele>
						<time>2020-04-28T17:03:54Z</time>
					</trkpt>
					<trkpt lat="46.551800" lon="5.136970">
						<ele>195</ele>
						<time>2020-04-28T17:04:06Z</time>
					</trkpt>
					<trkpt lat="46.551690" lon="5.137060">
						<ele>195</ele>
						<time>2020-04-28T17:04:23Z</time>
					</trkpt>
					<trkpt lat="46.551560" lon="5.137190">
						<ele>196</ele>
						<time>2020-04-28T17:04:44Z</time>
					</trkpt>
					<trkpt lat="46.551370" lon="5.137340">
						<ele>196</ele>
						<time>2020-04-28T17:05:13Z</time>
					</trkpt>
					<trkpt lat="46.551220" lon="5.137400">
						<ele>196</ele>
						<time>2020-04-28T17:05:34Z</time>
					</trkpt>
					<trkpt lat="46.550920" lon="5.137460">
						<ele>197</ele>
						<time>2020-04-28T17:06:14Z</time>
					</trkpt>
					<trkpt lat="46.550770" lon="5.137510">
						<ele>197</ele>
						<time>2020-04-28T17:06:35Z</time>
					</trkpt>
					<trkpt lat="46.550520" lon="5.137540">
						<ele>198</ele>
						<time>2020-04-28T17:07:08Z</time>
					</trkpt>
					<trkpt lat="46.550340" lon="5.137580">
						<ele>198</ele>
						<time>2020-04-28T17:07:33Z</time>
					</trkpt>
					<trkpt lat="46.550190" lon="5.136460">
						<ele>198</ele>
						<time>2020-04-28T17:09:17Z</time>
					</trkpt>
					<trkpt lat="46.550120" lon="5.136280">
						<ele>198</ele>
						<time>2020-04-28T17:09:36Z</time>
					</trkpt>
					<trkpt lat="46.550040" lon="5.136130">
						<ele>198</ele>
						<time>2020-04-28T17:09:54Z</time>
					</trkpt>
					<trkpt lat="46.549870" lon="5.136010">
						<ele>198</ele>
						<time>2020-04-28T17:10:19Z</time>
					</trkpt>
					<trkpt lat="46.549550" lon="5.135870">
						<ele>197</ele>
						<time>2020-04-28T17:11:04Z</time>
					</trkpt>
					<trkpt lat="46.549030" lon="5.135650">
						<ele>196</ele>
						<time>2020-04-28T17:12:16Z</time>
					</trkpt>
					<trkpt lat="46.548920" lon="5.135560">
						<ele>195</ele>
						<time>2020-04-28T17:12:33Z</time>
					</trkpt>
					<trkpt lat="46.548770" lon="5.135390">
						<ele>195</ele>
						<time>2020-04-28T17:12:58Z</time>
					</trkpt>
					<trkpt lat="46.548620" lon="5.135140">
						<ele>193</ele>
						<time>2020-04-28T17:13:29Z</time>
					</trkpt>
					<trkpt lat="46.548410" lon="5.134710">
						<ele>193</ele>
						<time>2020-04-28T17:14:17Z</time>
					</trkpt>
					<trkpt lat="46.547860" lon="5.133340">
						<ele>188</ele>
						<time>2020-04-28T17:16:42Z</time>
					</trkpt>
					<trkpt lat="46.547510" lon="5.132490">
						<ele>186</ele>
						<time>2020-04-28T17:18:13Z</time>
					</trkpt>
					<trkpt lat="46.547410" lon="5.132240">
						<ele>185</ele>
						<time>2020-04-28T17:18:40Z</time>
					</trkpt>
					<trkpt lat="46.547320" lon="5.132100">
						<ele>185</ele>
						<time>2020-04-28T17:18:58Z</time>
					</trkpt>
					<trkpt lat="46.547250" lon="5.132030">
						<ele>185</ele>
						<time>2020-04-28T17:19:09Z</time>
					</trkpt>
					<trkpt lat="46.547130" lon="5.131950">
						<ele>184</ele>
						<time>2020-04-28T17:19:27Z</time>
					</trkpt>
					<trkpt lat="46.547030" lon="5.131920">
						<ele>184</ele>
						<time>2020-04-28T17:19:40Z</time>
					</trkpt>
					<trkpt lat="46.546910" lon="5.131940">
						<ele>183</ele>
						<time>2020-04-28T17:19:56Z</time>
					</trkpt>
					<trkpt lat="46.546560" lon="5.132090">
						<ele>182</ele>
						<time>2020-04-28T17:20:45Z</time>
					</trkpt>
					<trkpt lat="46.546450" lon="5.132140">
						<ele>182</ele>
						<time>2020-04-28T17:21:00Z</time>
					</trkpt>
					<trkpt lat="46.546310" lon="5.132090">
						<ele>182</ele>
						<time>2020-04-28T17:21:20Z</time>
					</trkpt>
					<trkpt lat="46.546140" lon="5.131990">
						<ele>182</ele>
						<time>2020-04-28T17:21:44Z</time>
					</trkpt>
					<trkpt lat="46.545560" lon="5.131370">
						<ele>181</ele>
						<time>2020-04-28T17:23:20Z</time>
					</trkpt>
					<trkpt lat="46.545270" lon="5.131310">
						<ele>182</ele>
						<time>2020-04-28T17:23:59Z</time>
					</trkpt>
					<trkpt lat="46.545140" lon="5.131250">
						<ele>182</ele>
						<time>2020-04-28T17:24:17Z</time>
					</trkpt>
					<trkpt lat="46.544960" lon="5.131090">
						<ele>182</ele>
						<time>2020-04-28T17:24:46Z</time>
					</trkpt>
					<trkpt lat="46.544850" lon="5.130910">
						<ele>182</ele>
						<time>2020-04-28T17:25:08Z</time>
					</trkpt>
					<trkpt lat="46.544660" lon="5.130560">
						<ele>182</ele>
						<time>2020-04-28T17:25:49Z</time>
					</trkpt>
					<trkpt lat="46.544520" lon="5.130380">
						<ele>183</ele>
						<time>2020-04-28T17:26:14Z</time>
					</trkpt>
					<trkpt lat="46.544430" lon="5.130300">
						<ele>183</ele>
						<time>2020-04-28T17:26:28Z</time>
					</trkpt>
					<trkpt lat="46.544370" lon="5.129810">
						<ele>185</ele>
						<time>2020-04-28T17:27:13Z</time>
					</trkpt>
					<trkpt lat="46.544340" lon="5.129440">
						<ele>186</ele>
						<time>2020-04-28T17:27:47Z</time>
					</trkpt>
					<trkpt lat="46.544350" lon="5.129130">
						<ele>187</ele>
						<time>2020-04-28T17:28:16Z</time>
					</trkpt>
					<trkpt lat="46.544440" lon="5.128650">
						<ele>189</ele>
						<time>2020-04-28T17:29:02Z</time>
					</trkpt>
					<trkpt lat="46.544430" lon="5.128470">
						<ele>190</ele>
						<time>2020-04-28T17:29:18Z</time>
					</trkpt>
					<trkpt lat="46.544380" lon="5.128180">
						<ele>191</ele>
						<time>2020-04-28T17:29:46Z</time>
					</trkpt>
					<trkpt lat="46.544320" lon="5.127880">
						<ele>192</ele>
						<time>2020-04-28T17:30:14Z</time>
					</trkpt>
					<trkpt lat="46.544270" lon="5.127700">
						<ele>192</ele>
						<time>2020-04-28T17:30:32Z</time>
					</trkpt>
					<trkpt lat="46.544100" lon="5.127660">
						<ele>193</ele>
						<time>2020-04-28T17:30:55Z</time>
					</trkpt>
					<trkpt lat="46.543450" lon="5.127260">
						<ele>194</ele>
						<time>2020-04-28T17:32:29Z</time>
					</trkpt>
					<trkpt lat="46.543150" lon="5.127060">
						<ele>194</ele>
						<time>2020-04-28T17:33:13Z</time>
					</trkpt>
					<trkpt lat="46.542670" lon="5.126770">
						<ele>195</ele>
						<time>2020-04-28T17:34:23Z</time>
					</trkpt>
					<trkpt lat="46.542160" lon="5.126310">
						<ele>195</ele>
						<time>2020-04-28T17:35:43Z</time>
					</trkpt>
					<trkpt lat="46.541560" lon="5.125630">
						<ele>195</ele>
						<time>2020-04-28T17:37:24Z</time>
					</trkpt>
					<trkpt lat="46.541450" lon="5.125520">
						<ele>195</ele>
						<time>2020-04-28T17:37:42Z</time>
					</trkpt>
					<trkpt lat="46.541220" lon="5.125370">
						<ele>195</ele>
						<time>2020-04-28T17:38:16Z</time>
					</trkpt>
					<trkpt lat="46.540960" lon="5.125120">
						<ele>195</ele>
						<time>2020-04-28T17:38:57Z</time>
					</trkpt>
					<trkpt lat="46.540780" lon="5.125020">
						<ele>195</ele>
						<time>2020-04-28T17:39:23Z</time>
					</trkpt>
					<trkpt lat="46.540500" lon="5.124920">
						<ele>195</ele>
						<time>2020-04-28T17:40:02Z</time>
					</trkpt>
					<trkpt lat="46.540340" lon="5.124770">
						<ele>195</ele>
						<time>2020-04-28T17:40:27Z</time>
					</trkpt>
					<trkpt lat="46.539970" lon="5.124290">
						<ele>194</ele>
						<time>2020-04-28T17:41:33Z</time>
					</trkpt>
					<trkpt lat="46.539870" lon="5.124210">
						<ele>195</ele>
						<time>2020-04-28T17:41:48Z</time>
					</trkpt>
					<trkpt lat="46.539620" lon="5.124110">
						<ele>197</ele>
						<time>2020-04-28T17:42:23Z</time>
					</trkpt>
					<trkpt lat="46.539530" lon="5.124110">
						<ele>198</ele>
						<time>2020-04-28T17:42:35Z</time>
					</trkpt>
					<trkpt lat="46.539250" lon="5.124170">
						<ele>200</ele>
						<time>2020-04-28T17:43:13Z</time>
					</trkpt>
					<trkpt lat="46.538670" lon="5.124620">
						<ele>203</ele>
						<time>2020-04-28T17:44:40Z</time>
					</trkpt>
					<trkpt lat="46.538550" lon="5.124720">
						<ele>204</ele>
						<time>2020-04-28T17:44:59Z</time>
					</trkpt>
					<trkpt lat="46.538250" lon="5.124730">
						<ele>205</ele>
						<time>2020-04-28T17:45:39Z</time>
					</trkpt>
					<trkpt lat="46.537750" lon="5.124670">
						<ele>205</ele>
						<time>2020-04-28T17:46:46Z</time>
					</trkpt>
					<trkpt lat="46.537100" lon="5.124480">
						<ele>206</ele>
						<time>2020-04-28T17:48:14Z</time>
					</trkpt>
					<trkpt lat="46.536780" lon="5.124370">
						<ele>206</ele>
						<time>2020-04-28T17:48:58Z</time>
					</trkpt>
					<trkpt lat="46.536240" lon="5.124100">
						<ele>206</ele>
						<time>2020-04-28T17:50:14Z</time>
					</trkpt>
					<trkpt lat="46.535610" lon="5.124110">
						<ele>207</ele>
						<time>2020-04-28T17:51:39Z</time>
					</trkpt>
					<trkpt lat="46.535430" lon="5.124130">
						<ele>207</ele>
						<time>2020-04-28T17:52:03Z</time>
					</trkpt>
					<trkpt lat="46.535100" lon="5.124960">
						<ele>208</ele>
						<time>2020-04-28T17:53:31Z</time>
					</trkpt>
					<trkpt lat="46.534600" lon="5.125860">
						<ele>207</ele>
						<time>2020-04-28T17:55:17Z</time>
					</trkpt>
					<trkpt lat="46.534260" lon="5.126500">
						<ele>207</ele>
						<time>2020-04-28T17:56:31Z</time>
					</trkpt>
					<trkpt lat="46.533930" lon="5.127270">
						<ele>205</ele>
						<time>2020-04-28T17:57:54Z</time>
					</trkpt>
					<trkpt lat="46.533880" lon="5.127940">
						<ele>203</ele>
						<time>2020-04-28T17:58:56Z</time>
					</trkpt>
					<trkpt lat="46.533750" lon="5.128270">
						<ele>202</ele>
						<time>2020-04-28T17:59:31Z</time>
					</trkpt>
					<trkpt lat="46.533630" lon="5.128640">
						<ele>200</ele>
						<time>2020-04-28T18:00:09Z</time>
					</trkpt>
					<trkpt lat="46.533600" lon="5.128970">
						<ele>199</ele>
						<time>2020-04-28T18:00:39Z</time>
					</trkpt>
					<trkpt lat="46.533540" lon="5.129790">
						<ele>198</ele>
						<time>2020-04-28T18:01:55Z</time>
					</trkpt>
					<trkpt lat="46.533590" lon="5.129930">
						<ele>198</ele>
						<time>2020-04-28T18:02:09Z</time>
					</trkpt>
					<trkpt lat="46.534050" lon="5.130240">
						<ele>197</ele>
						<time>2020-04-28T18:03:17Z</time>
					</trkpt>
					<trkpt lat="46.534140" lon="5.130350">
						<ele>197</ele>
						<time>2020-04-28T18:03:33Z</time>
					</trkpt>
					<trkpt lat="46.534310" lon="5.130720">
						<ele>197</ele>
						<time>2020-04-28T18:04:14Z</time>
					</trkpt>
					<trkpt lat="46.534540" lon="5.131180">
						<ele>197</ele>
						<time>2020-04-28T18:05:06Z</time>
					</trkpt>
					<trkpt lat="46.534690" lon="5.131350">
						<ele>197</ele>
						<time>2020-04-28T18:05:31Z</time>
					</trkpt>
					<trkpt lat="46.534970" lon="5.131640">
						<ele>196</ele>
						<time>2020-04-28T18:06:17Z</time>
					</trkpt>
					<trkpt lat="46.534910" lon="5.131690">
						<ele>196</ele>
						<time>2020-04-28T18:06:26Z</time>
					</trkpt>
					<trkpt lat="46.534840" lon="5.131950">
						<ele>195</ele>
						<time>2020-04-28T18:06:52Z</time>
					</trkpt>
					<trkpt lat="46.534800" lon="5.132160">
						<ele>194</ele>
						<time>2020-04-28T18:07:12Z</time>
					</trkpt>
					<trkpt lat="46.534670" lon="5.132610">
						<ele>193</ele>
						<time>2020-04-28T18:07:57Z</time>
					</trkpt>
					<trkpt lat="46.534490" lon="5.133160">
						<ele>192</ele>
						<time>2020-04-28T18:08:53Z</time>
					</trkpt>
					<trkpt lat="46.534420" lon="5.133400">
						<ele>193</ele>
						<time>2020-04-28T18:09:17Z</time>
					</trkpt>
					<trkpt lat="46.534320" lon="5.133880">
						<ele>196</ele>
						<time>2020-04-28T18:10:03Z</time>
					</trkpt>
					<trkpt lat="46.533780" lon="5.135290">
						<ele>202</ele>
						<time>2020-04-28T18:12:31Z</time>
					</trkpt>
					<trkpt lat="46.533700" lon="5.135540">
						<ele>201</ele>
						<time>2020-04-28T18:12:56Z</time>
					</trkpt>
					<trkpt lat="46.533580" lon="5.136090">
						<ele>200</ele>
						<time>2020-04-28T18:13:49Z</time>
					</trkpt>
					<trkpt lat="46.534120" lon="5.136170">
						<ele>201</ele>
						<time>2020-04-28T18:15:02Z</time>
					</trkpt>
					<trkpt lat="46.534110" lon="5.136320">
						<ele>200</ele>
						<time>2020-04-28T18:15:15Z</time>
					</trkpt>
					<trkpt lat="46.534130" lon="5.136810">
						<ele>196</ele>
						<time>2020-04-28T18:16:00Z</time>
					</trkpt>
					<trkpt lat="46.534310" lon="5.138000">
						<ele>189</ele>
						<time>2020-04-28T18:17:52Z</time>
					</trkpt>
					<trkpt lat="46.534360" lon="5.138430">
						<ele>187</ele>
						<time>2020-04-28T18:18:32Z</time>
					</trkpt>
					<trkpt lat="46.534430" lon="5.138630">
						<ele>186</ele>
						<time>2020-04-28T18:18:53Z</time>
					</trkpt>
					<trkpt lat="46.534490" lon="5.138800">
						<ele>186</ele>
						<time>2020-04-28T18:19:10Z</time>
					</trkpt>
					<trkpt lat="46.534460" lon="5.138940">
						<ele>186</ele>
						<time>2020-04-28T18:19:24Z</time>
					</trkpt>
					<trkpt lat="46.534530" lon="5.139030">
						<ele>185</ele>
						<time>2020-04-28T18:19:36Z</time>
					</trkpt>
					<trkpt lat="46.534650" lon="5.139260">
						<ele>185</ele>
						<time>2020-04-28T18:20:03Z</time>
					</trkpt>
					<trkpt lat="46.534760" lon="5.139320">
						<ele>185</ele>
						<time>2020-04-28T18:20:19Z</time>
					</trkpt>
					<trkpt lat="46.534800" lon="5.139290">
						<ele>185</ele>
						<time>2020-04-28T18:20:25Z</time>
					</trkpt>
					<trkpt lat="46.534850" lon="5.139440">
						<ele>185</ele>
						<time>2020-04-28T18:20:40Z</time>
					</trkpt>
					<trkpt lat="46.534800" lon="5.139590">
						<ele>185</ele>
						<time>2020-04-28T18:20:55Z</time>
					</trkpt>
					<trkpt lat="46.534810" lon="5.139640">
						<ele>185</ele>
						<time>2020-04-28T18:21:00Z</time>
					</trkpt>
					<trkpt lat="46.534790" lon="5.139740">
						<ele>185</ele>
						<time>2020-04-28T18:21:09Z</time>
					</trkpt>
					<trkpt lat="46.534900" lon="5.139820">
						<ele>185</ele>
						<time>2020-04-28T18:21:26Z</time>
					</trkpt>
					<trkpt lat="46.534900" lon="5.139960">
						<ele>185</ele>
						<time>2020-04-28T18:21:39Z</time>
					</trkpt>
					<trkpt lat="46.534830" lon="5.140210">
						<ele>185</ele>
						<time>2020-04-28T18:22:04Z</time>
					</trkpt>
					<trkpt lat="46.534790" lon="5.140470">
						<ele>186</ele>
						<time>2020-04-28T18:22:28Z</time>
					</trkpt>
					<trkpt lat="46.534810" lon="5.140650">
						<ele>186</ele>
						<time>2020-04-28T18:22:45Z</time>
					</trkpt>
					<trkpt lat="46.535050" lon="5.141040">
						<ele>186</ele>
						<time>2020-04-28T18:23:33Z</time>
					</trkpt>
					<trkpt lat="46.535290" lon="5.141210">
						<ele>187</ele>
						<time>2020-04-28T18:24:08Z</time>
					</trkpt>
					<trkpt lat="46.535440" lon="5.141350">
						<ele>187</ele>
						<time>2020-04-28T18:24:32Z</time>
					</trkpt>
					<trkpt lat="46.535640" lon="5.141660">
						<ele>188</ele>
						<time>2020-04-28T18:25:11Z</time>
					</trkpt>
					<trkpt lat="46.535610" lon="5.141740">
						<ele>188</ele>
						<time>2020-04-28T18:25:20Z</time>
					</trkpt>
					<trkpt lat="46.535610" lon="5.141860">
						<ele>189</ele>
						<time>2020-04-28T18:25:31Z</time>
					</trkpt>
					<trkpt lat="46.535650" lon="5.142670">
						<ele>192</ele>
						<time>2020-04-28T18:26:45Z</time>
					</trkpt>
					<trkpt lat="46.535650" lon="5.143130">
						<ele>193</ele>
						<time>2020-04-28T18:27:27Z</time>
					</trkpt>
					<trkpt lat="46.535640" lon="5.143690">
						<ele>193</ele>
						<time>2020-04-28T18:28:19Z</time>
					</trkpt>
					<trkpt lat="46.535650" lon="5.143930">
						<ele>192</ele>
						<time>2020-04-28T18:28:41Z</time>
					</trkpt>
					<trkpt lat="46.535660" lon="5.144070">
						<ele>192</ele>
						<time>2020-04-28T18:28:54Z</time>
					</trkpt>
					<trkpt lat="46.535680" lon="5.144240">
						<ele>192</ele>
						<time>2020-04-28T18:29:10Z</time>
					</trkpt>
					<trkpt lat="46.535740" lon="5.144430">
						<ele>192</ele>
						<time>2020-04-28T18:29:29Z</time>
					</trkpt>
					<trkpt lat="46.535780" lon="5.144500">
						<ele>192</ele>
						<time>2020-04-28T18:29:37Z</time>
					</trkpt>
					<trkpt lat="46.536070" lon="5.144710">
						<ele>192</ele>
						<time>2020-04-28T18:30:20Z</time>
					</trkpt>
					<trkpt lat="46.536130" lon="5.144780">
						<ele>191</ele>
						<time>2020-04-28T18:30:31Z</time>
					</trkpt>
					<trkpt lat="46.536210" lon="5.144910">
						<ele>191</ele>
						<time>2020-04-28T18:30:47Z</time>
					</trkpt>
					<trkpt lat="46.536250" lon="5.145010">
						<ele>191</ele>
						<time>2020-04-28T18:30:57Z</time>
					</trkpt>
					<trkpt lat="46.536280" lon="5.145160">
						<ele>191</ele>
						<time>2020-04-28T18:31:12Z</time>
					</trkpt>
					<trkpt lat="46.536300" lon="5.145360">
						<ele>192</ele>
						<time>2020-04-28T18:31:30Z</time>
					</trkpt>
					<trkpt lat="46.536330" lon="5.145840">
						<ele>193</ele>
						<time>2020-04-28T18:32:14Z</time>
					</trkpt>
					<trkpt lat="46.536330" lon="5.145940">
						<ele>193</ele>
						<time>2020-04-28T18:32:24Z</time>
					</trkpt>
					<trkpt lat="46.536310" lon="5.146270">
						<ele>193</ele>
						<time>2020-04-28T18:32:54Z</time>
					</trkpt>
					<trkpt lat="46.536320" lon="5.146530">
						<ele>193</ele>
						<time>2020-04-28T18:33:18Z</time>
					</trkpt>
					<trkpt lat="46.536370" lon="5.146710">
						<ele>193</ele>
						<time>2020-04-28T18:33:36Z</time>
					</trkpt>
					<trkpt lat="46.536460" lon="5.146960">
						<ele>194</ele>
						<time>2020-04-28T18:34:02Z</time>
					</trkpt>
					<trkpt lat="46.536500" lon="5.147190">
						<ele>195</ele>
						<time>2020-04-28T18:34:23Z</time>
					</trkpt>
					<trkpt lat="46.536520" lon="5.147360">
						<ele>195</ele>
						<time>2020-04-28T18:34:39Z</time>
					</trkpt>
					<trkpt lat="46.536490" lon="5.147850">
						<ele>196</ele>
						<time>2020-04-28T18:35:24Z</time>
					</trkpt>
					<trkpt lat="46.536510" lon="5.148070">
						<ele>197</ele>
						<time>2020-04-28T18:35:45Z</time>
					</trkpt>
					<trkpt lat="46.536540" lon="5.148300">
						<ele>198</ele>
						<time>2020-04-28T18:36:06Z</time>
					</trkpt>
					<trkpt lat="46.536560" lon="5.148520">
						<ele>197</ele>
						<time>2020-04-28T18:36:27Z</time>
					</trkpt>
					<trkpt lat="46.536520" lon="5.148700">
						<ele>197</ele>
						<time>2020-04-28T18:36:44Z</time>
					</trkpt>
					<trkpt lat="46.536390" lon="5.149190">
						<ele>196</ele>
						<time>2020-04-28T18:37:32Z</time>
					</trkpt>
					<trkpt lat="46.536220" lon="5.149780">
						<ele>196</ele>
						<time>2020-04-28T18:38:31Z</time>
					</trkpt>
					<trkpt lat="46.536090" lon="5.150180">
						<ele>196</ele>
						<time>2020-04-28T18:39:12Z</time>
					</trkpt>
					<trkpt lat="46.535970" lon="5.150400">
						<ele>197</ele>
						<time>2020-04-28T18:39:37Z</time>
					</trkpt>
					<trkpt lat="46.535780" lon="5.150690">
						<ele>198</ele>
						<time>2020-04-28T18:40:14Z</time>
					</trkpt>
					<trkpt lat="46.535630" lon="5.150940">
						<ele>198</ele>
						<time>2020-04-28T18:40:45Z</time>
					</trkpt>
					<trkpt lat="46.535540" lon="5.151190">
						<ele>199</ele>
						<time>2020-04-28T18:41:10Z</time>
					</trkpt>
					<trkpt lat="46.535760" lon="5.151250">
						<ele>199</ele>
						<time>2020-04-28T18:41:40Z</time>
					</trkpt>
					<trkpt lat="46.536130" lon="5.151430">
						<ele>198</ele>
						<time>2020-04-28T18:42:32Z</time>
					</trkpt>
					<trkpt lat="46.536920" lon="5.151630">
						<ele>195</ele>
						<time>2020-04-28T18:44:19Z</time>
					</trkpt>
					<trkpt lat="46.537160" lon="5.151700">
						<ele>195</ele>
						<time>2020-04-28T18:44:52Z</time>
					</trkpt>
					<trkpt lat="46.537440" lon="5.151810">
						<ele>195</ele>
						<time>2020-04-28T18:45:31Z</time>
					</trkpt>
					<trkpt lat="46.538040" lon="5.152110">
						<ele>194</ele>
						<time>2020-04-28T18:46:55Z</time>
					</trkpt>
					<trkpt lat="46.538630" lon="5.152210">
						<ele>192</ele>
						<time>2020-04-28T18:48:15Z</time>
					</trkpt>
					<trkpt lat="46.538610" lon="5.152600">
						<ele>192</ele>
						<time>2020-04-28T18:48:51Z</time>
					</trkpt>
					<trkpt lat="46.538590" lon="5.152680">
						<ele>192</ele>
						<time>2020-04-28T18:48:58Z</time>
					</trkpt>
					<trkpt lat="46.538580" lon="5.152720">
						<ele>192</ele>
						<time>2020-04-28T18:49:02Z</time>
					</trkpt>
					<trkpt lat="46.538570" lon="5.153030">
						<ele>191</ele>
						<time>2020-04-28T18:49:31Z</time>
					</trkpt>
					<trkpt lat="46.538580" lon="5.153300">
						<ele>190</ele>
						<time>2020-04-28T18:49:56Z</time>
					</trkpt>
					<trkpt lat="46.538610" lon="5.153710">
						<ele>190</ele>
						<time>2020-04-28T18:50:33Z</time>
					</trkpt>
					<trkpt lat="46.538610" lon="5.153880">
						<ele>189</ele>
						<time>2020-04-28T18:50:49Z</time>
					</trkpt>
					<trkpt lat="46.538590" lon="5.153940">
						<ele>189</ele>
						<time>2020-04-28T18:50:55Z</time>
					</trkpt>
					<trkpt lat="46.538560" lon="5.153980">
						<ele>189</ele>
						<time>2020-04-28T18:51:01Z</time>
					</trkpt>
					<trkpt lat="46.538320" lon="5.154060">
						<ele>190</ele>
						<time>2020-04-28T18:51:33Z</time>
					</trkpt>
					<trkpt lat="46.538230" lon="5.154140">
						<ele>191</ele>
						<time>2020-04-28T18:51:48Z</time>
					</trkpt>
					<trkpt lat="46.538160" lon="5.154240">
						<ele>192</ele>
						<time>2020-04-28T18:52:01Z</time>
					</trkpt>
					<trkpt lat="46.537840" lon="5.154350">
						<ele>194</ele>
						<time>2020-04-28T18:52:45Z</time>
					</trkpt>
					<trkpt lat="46.537710" lon="5.154430">
						<ele>195</ele>
						<time>2020-04-28T18:53:03Z</time>
					</trkpt>
					<trkpt lat="46.537560" lon="5.154600">
						<ele>197</ele>
						<time>2020-04-28T18:53:29Z</time>
					</trkpt>
					<trkpt lat="46.537470" lon="5.154730">
						<ele>197</ele>
						<time>2020-04-28T18:53:46Z</time>
					</trkpt>
					<trkpt lat="46.537390" lon="5.154840">
						<ele>197</ele>
						<time>2020-04-28T18:54:00Z</time>
					</trkpt>
					<trkpt lat="46.537300" lon="5.154900">
						<ele>198</ele>
						<time>2020-04-28T18:54:14Z</time>
					</trkpt>
					<trkpt lat="46.537170" lon="5.154970">
						<ele>198</ele>
						<time>2020-04-28T18:54:32Z</time>
					</trkpt>
					<trkpt lat="46.537090" lon="5.155000">
						<ele>198</ele>
						<time>2020-04-28T18:54:43Z</time>
					</trkpt>
					<trkpt lat="46.536970" lon="5.155010">
						<ele>199</ele>
						<time>2020-04-28T18:54:59Z</time>
					</trkpt>
					<trkpt lat="46.536470" lon="5.155000">
						<ele>200</ele>
						<time>2020-04-28T18:56:06Z</time>
					</trkpt>
					<trkpt lat="46.536270" lon="5.154990">
						<ele>200</ele>
						<time>2020-04-28T18:56:33Z</time>
					</trkpt>
					<trkpt lat="46.536140" lon="5.154950">
						<ele>199</ele>
						<time>2020-04-28T18:56:50Z</time>
					</trkpt>
					<trkpt lat="46.536020" lon="5.154880">
						<ele>199</ele>
						<time>2020-04-28T18:57:08Z</time>
					</trkpt>
					<trkpt lat="46.535760" lon="5.154630">
						<ele>199</ele>
						<time>2020-04-28T18:57:49Z</time>
					</trkpt>
					<trkpt lat="46.535600" lon="5.154470">
						<ele>198</ele>
						<time>2020-04-28T18:58:15Z</time>
					</trkpt>
					<trkpt lat="46.535520" lon="5.154420">
						<ele>198</ele>
						<time>2020-04-28T18:58:27Z</time>
					</trkpt>
					<trkpt lat="46.535210" lon="5.154360">
						<ele>198</ele>
						<time>2020-04-28T18:59:08Z</time>
					</trkpt>
					<trkpt lat="46.535100" lon="5.154330">
						<ele>198</ele>
						<time>2020-04-28T18:59:23Z</time>
					</trkpt>
					<trkpt lat="46.534870" lon="5.154220">
						<ele>198</ele>
						<time>2020-04-28T18:59:56Z</time>
					</trkpt>
					<trkpt lat="46.534660" lon="5.154140">
						<ele>199</ele>
						<time>2020-04-28T19:00:25Z</time>
					</trkpt>
					<trkpt lat="46.534550" lon="5.154060">
						<ele>199</ele>
						<time>2020-04-28T19:00:41Z</time>
					</trkpt>
					<trkpt lat="46.534500" lon="5.154070">
						<ele>200</ele>
						<time>2020-04-28T19:00:48Z</time>
					</trkpt>
					<trkpt lat="46.534840" lon="5.155300">
						<ele>198</ele>
						<time>2020-04-28T19:02:49Z</time>
					</trkpt>
					<trkpt lat="46.535190" lon="5.156560">
						<ele>194</ele>
						<time>2020-04-28T19:04:54Z</time>
					</trkpt>
					<trkpt lat="46.535490" lon="5.157510">
						<ele>189</ele>
						<time>2020-04-28T19:06:30Z</time>
					</trkpt>
					<trkpt lat="46.535860" lon="5.158520">
						<ele>186</ele>
						<time>2020-04-28T19:08:15Z</time>
					</trkpt>
					<trkpt lat="46.536250" lon="5.159620">
						<ele>189</ele>
						<time>2020-04-28T19:10:09Z</time>
					</trkpt>
					<trkpt lat="46.536930" lon="5.161450">
						<ele>195</ele>
						<time>2020-04-28T19:13:20Z</time>
					</trkpt>
					<trkpt lat="46.537050" lon="5.161810">
						<ele>196</ele>
						<time>2020-04-28T19:13:56Z</time>
					</trkpt>
					<trkpt lat="46.537130" lon="5.162160">
						<ele>196</ele>
						<time>2020-04-28T19:14:30Z</time>
					</trkpt>
					<trkpt lat="46.537160" lon="5.162290">
						<ele>196</ele>
						<time>2020-04-28T19:14:43Z</time>
					</trkpt>
					<trkpt lat="46.537260" lon="5.162100">
						<ele>196</ele>
						<time>2020-04-28T19:15:05Z</time>
					</trkpt>
					<trkpt lat="46.537330" lon="5.161910">
						<ele>197</ele>
						<time>2020-04-28T19:15:25Z</time>
					</trkpt>
					<trkpt lat="46.537380" lon="5.161800">
						<ele>197</ele>
						<time>2020-04-28T19:15:37Z</time>
					</trkpt>
					<trkpt lat="46.537450" lon="5.161770">
						<ele>197</ele>
						<time>2020-04-28T19:15:47Z</time>
					</trkpt>
					<trkpt lat="46.537540" lon="5.161770">
						<ele>197</ele>
						<time>2020-04-28T19:15:59Z</time>
					</trkpt>
					<trkpt lat="46.538050" lon="5.161880">
						<ele>197</ele>
						<time>2020-04-28T19:17:07Z</time>
					</trkpt>
					<trkpt lat="46.538120" lon="5.161900">
						<ele>197</ele>
						<time>2020-04-28T19:17:17Z</time>
					</trkpt>
					<trkpt lat="46.538350" lon="5.161830">
						<ele>197</ele>
						<time>2020-04-28T19:17:48Z</time>
					</trkpt>
					<trkpt lat="46.538590" lon="5.161720">
						<ele>197</ele>
						<time>2020-04-28T19:18:22Z</time>
					</trkpt>
					<trkpt lat="46.538660" lon="5.161710">
						<ele>197</ele>
						<time>2020-04-28T19:18:31Z</time>
					</trkpt>
					<trkpt lat="46.538760" lon="5.161790">
						<ele>197</ele>
						<time>2020-04-28T19:18:46Z</time>
					</trkpt>
					<trkpt lat="46.538930" lon="5.161860">
						<ele>197</ele>
						<time>2020-04-28T19:19:10Z</time>
					</trkpt>
					<trkpt lat="46.539100" lon="5.161840">
						<ele>197</ele>
						<time>2020-04-28T19:19:33Z</time>
					</trkpt>
					<trkpt lat="46.539210" lon="5.161840">
						<ele>197</ele>
						<time>2020-04-28T19:19:47Z</time>
					</trkpt>
					<trkpt lat="46.539490" lon="5.161900">
						<ele>197</ele>
						<time>2020-04-28T19:20:25Z</time>
					</trkpt>
					<trkpt lat="46.539560" lon="5.161910">
						<ele>197</ele>
						<time>2020-04-28T19:20:35Z</time>
					</trkpt>
					<trkpt lat="46.539700" lon="5.161860">
						<ele>197</ele>
						<time>2020-04-28T19:20:54Z</time>
					</trkpt>
					<trkpt lat="46.539860" lon="5.161750">
						<ele>197</ele>
						<time>2020-04-28T19:21:17Z</time>
					</trkpt>
					<trkpt lat="46.539990" lon="5.161670">
						<ele>197</ele>
						<time>2020-04-28T19:21:36Z</time>
					</trkpt>
					<trkpt lat="46.540260" lon="5.161450">
						<ele>197</ele>
						<time>2020-04-28T19:22:18Z</time>
					</trkpt>
					<trkpt lat="46.540850" lon="5.160850">
						<ele>196</ele>
						<time>2020-04-28T19:23:54Z</time>
					</trkpt>
					<trkpt lat="46.540950" lon="5.160630">
						<ele>196</ele>
						<time>2020-04-28T19:24:18Z</time>
					</trkpt>
					<trkpt lat="46.541040" lon="5.160230">
						<ele>196</ele>
						<time>2020-04-28T19:24:57Z</time>
					</trkpt>
					<trkpt lat="46.541090" lon="5.159970">
						<ele>197</ele>
						<time>2020-04-28T19:25:21Z</time>
					</trkpt>
					<trkpt lat="46.541170" lon="5.159600">
						<ele>197</ele>
						<time>2020-04-28T19:25:57Z</time>
					</trkpt>
					<trkpt lat="46.541230" lon="5.158880">
						<ele>197</ele>
						<time>2020-04-28T19:27:03Z</time>
					</trkpt>
					<trkpt lat="46.541250" lon="5.158400">
						<ele>196</ele>
						<time>2020-04-28T19:27:48Z</time>
					</trkpt>
					<trkpt lat="46.541250" lon="5.158230">
						<ele>196</ele>
						<time>2020-04-28T19:28:03Z</time>
					</trkpt>
					<trkpt lat="46.541240" lon="5.157990">
						<ele>196</ele>
						<time>2020-04-28T19:28:25Z</time>
					</trkpt>
					<trkpt lat="46.541220" lon="5.157690">
						<ele>195</ele>
						<time>2020-04-28T19:28:53Z</time>
					</trkpt>
					<trkpt lat="46.541220" lon="5.157630">
						<ele>195</ele>
						<time>2020-04-28T19:28:58Z</time>
					</trkpt>
					<trkpt lat="46.541220" lon="5.157390">
						<ele>194</ele>
						<time>2020-04-28T19:29:20Z</time>
					</trkpt>
					<trkpt lat="46.541240" lon="5.157110">
						<ele>193</ele>
						<time>2020-04-28T19:29:46Z</time>
					</trkpt>
					<trkpt lat="46.541290" lon="5.156970">
						<ele>193</ele>
						<time>2020-04-28T19:30:01Z</time>
					</trkpt>
					<trkpt lat="46.541640" lon="5.156780">
						<ele>193</ele>
						<time>2020-04-28T19:30:51Z</time>
					</trkpt>
					<trkpt lat="46.541690" lon="5.156730">
						<ele>193</ele>
						<time>2020-04-28T19:30:59Z</time>
					</trkpt>
					<trkpt lat="46.541680" lon="5.156550">
						<ele>193</ele>
						<time>2020-04-28T19:31:15Z</time>
					</trkpt>
					<trkpt lat="46.541630" lon="5.156220">
						<ele>193</ele>
						<time>2020-04-28T19:31:46Z</time>
					</trkpt>
					<trkpt lat="46.541540" lon="5.155850">
						<ele>192</ele>
						<time>2020-04-28T19:32:22Z</time>
					</trkpt>
					<trkpt lat="46.541410" lon="5.155420">
						<ele>192</ele>
						<time>2020-04-28T19:33:05Z</time>
					</trkpt>
					<trkpt lat="46.541260" lon="5.155090">
						<ele>192</ele>
						<time>2020-04-28T19:33:42Z</time>
					</trkpt>
					<trkpt lat="46.541190" lon="5.154950">
						<ele>192</ele>
						<time>2020-04-28T19:33:58Z</time>
					</trkpt>
					<trkpt lat="46.541120" lon="5.154770">
						<ele>191</ele>
						<time>2020-04-28T19:34:17Z</time>
					</trkpt>
					<trkpt lat="46.541060" lon="5.154470">
						<ele>190</ele>
						<time>2020-04-28T19:34:45Z</time>
					</trkpt>
					<trkpt lat="46.541040" lon="5.154320">
						<ele>190</ele>
						<time>2020-04-28T19:34:59Z</time>
					</trkpt>
					<trkpt lat="46.541050" lon="5.154130">
						<ele>190</ele>
						<time>2020-04-28T19:35:17Z</time>
					</trkpt>
					<trkpt lat="46.541080" lon="5.153960">
						<ele>190</ele>
						<time>2020-04-28T19:35:33Z</time>
					</trkpt>
					<trkpt lat="46.541180" lon="5.153700">
						<ele>189</ele>
						<time>2020-04-28T19:36:00Z</time>
					</trkpt>
					<trkpt lat="46.541250" lon="5.153640">
						<ele>189</ele>
						<time>2020-04-28T19:36:11Z</time>
					</trkpt>
					<trkpt lat="46.541300" lon="5.153540">
						<ele>189</ele>
						<time>2020-04-28T19:36:22Z</time>
					</trkpt>
					<trkpt lat="46.541360" lon="5.153400">
						<ele>189</ele>
						<time>2020-04-28T19:36:38Z</time>
					</trkpt>
					<trkpt lat="46.541400" lon="5.153260">
						<ele>189</ele>
						<time>2020-04-28T19:36:52Z</time>
					</trkpt>
					<trkpt lat="46.541460" lon="5.153160">
						<ele>190</ele>
						<time>2020-04-28T19:37:04Z</time>
					</trkpt>
					<trkpt lat="46.541520" lon="5.153080">
						<ele>190</ele>
						<time>2020-04-28T19:37:15Z</time>
					</trkpt>
					<trkpt lat="46.541620" lon="5.153010">
						<ele>191</ele>
						<time>2020-04-28T19:37:29Z</time>
					</trkpt>
					<trkpt lat="46.541730" lon="5.152990">
						<ele>191</ele>
						<time>2020-04-28T19:37:44Z</time>
					</trkpt>
					<trkpt lat="46.541940" lon="5.152980">
						<ele>192</ele>
						<time>2020-04-28T19:38:12Z</time>
					</trkpt>
					<trkpt lat="46.542040" lon="5.152960">
						<ele>192</ele>
						<time>2020-04-28T19:38:26Z</time>
					</trkpt>
					<trkpt lat="46.542120" lon="5.152910">
						<ele>192</ele>
						<time>2020-04-28T19:38:37Z</time>
					</trkpt>
					<trkpt lat="46.542230" lon="5.152780">
						<ele>193</ele>
						<time>2020-04-28T19:38:56Z</time>
					</trkpt>
					<trkpt lat="46.542330" lon="5.152630">
						<ele>193</ele>
						<time>2020-04-28T19:39:15Z</time>
					</trkpt>
					<trkpt lat="46.542380" lon="5.152500">
						<ele>194</ele>
						<time>2020-04-28T19:39:29Z</time>
					</trkpt>
					<trkpt lat="46.542480" lon="5.152170">
						<ele>194</ele>
						<time>2020-04-28T19:40:02Z</time>
					</trkpt>
					<trkpt lat="46.542510" lon="5.152220">
						<ele>194</ele>
						<time>2020-04-28T19:40:08Z</time>
					</trkpt>
					<trkpt lat="46.542640" lon="5.151850">
						<ele>193</ele>
						<time>2020-04-28T19:40:46Z</time>
					</trkpt>
					<trkpt lat="46.542690" lon="5.151670">
						<ele>192</ele>
						<time>2020-04-28T19:41:04Z</time>
					</trkpt>
					<trkpt lat="46.542810" lon="5.151000">
						<ele>190</ele>
						<time>2020-04-28T19:42:08Z</time>
					</trkpt>
					<trkpt lat="46.542920" lon="5.150400">
						<ele>189</ele>
						<time>2020-04-28T19:43:05Z</time>
					</trkpt>
					<trkpt lat="46.543000" lon="5.150180">
						<ele>189</ele>
						<time>2020-04-28T19:43:28Z</time>
					</trkpt>
					<trkpt lat="46.543080" lon="5.150050">
						<ele>189</ele>
						<time>2020-04-28T19:43:44Z</time>
					</trkpt>
					<trkpt lat="46.543310" lon="5.149790">
						<ele>190</ele>
						<time>2020-04-28T19:44:22Z</time>
					</trkpt>
					<trkpt lat="46.543380" lon="5.149690">
						<ele>190</ele>
						<time>2020-04-28T19:44:36Z</time>
					</trkpt>
					<trkpt lat="46.543520" lon="5.149450">
						<ele>190</ele>
						<time>2020-04-28T19:45:04Z</time>
					</trkpt>
					<trkpt lat="46.543600" lon="5.149270">
						<ele>190</ele>
						<time>2020-04-28T19:45:24Z</time>
					</trkpt>
					<trkpt lat="46.543670" lon="5.149090">
						<ele>190</ele>
						<time>2020-04-28T19:45:43Z</time>
					</trkpt>
					<trkpt lat="46.543720" lon="5.148930">
						<ele>189</ele>
						<time>2020-04-28T19:45:59Z</time>
					</trkpt>
					<trkpt lat="46.543760" lon="5.148830">
						<ele>189</ele>
						<time>2020-04-28T19:46:10Z</time>
					</trkpt>
					<trkpt lat="46.544000" lon="5.148380">
						<ele>189</ele>
						<time>2020-04-28T19:47:02Z</time>
					</trkpt>
					<trkpt lat="46.544050" lon="5.148270">
						<ele>189</ele>
						<time>2020-04-28T19:47:14Z</time>
					</trkpt>
					<trkpt lat="46.544090" lon="5.148170">
						<ele>189</ele>
						<time>2020-04-28T19:47:25Z</time>
					</trkpt>
					<trkpt lat="46.544130" lon="5.148040">
						<ele>189</ele>
						<time>2020-04-28T19:47:38Z</time>
					</trkpt>
					<trkpt lat="46.544200" lon="5.147910">
						<ele>190</ele>
						<time>2020-04-28T19:47:53Z</time>
					</trkpt>
					<trkpt lat="46.544300" lon="5.147790">
						<ele>190</ele>
						<time>2020-04-28T19:48:10Z</time>
					</trkpt>
					<trkpt lat="46.544370" lon="5.147750">
						<ele>190</ele>
						<time>2020-04-28T19:48:20Z</time>
					</trkpt>
					<trkpt lat="46.544520" lon="5.147720">
						<ele>190</ele>
						<time>2020-04-28T19:48:41Z</time>
					</trkpt>
					<trkpt lat="46.544610" lon="5.147760">
						<ele>190</ele>
						<time>2020-04-28T19:48:53Z</time>
					</trkpt>
					<trkpt lat="46.544900" lon="5.148000">
						<ele>190</ele>
						<time>2020-04-28T19:49:38Z</time>
					</trkpt>
					<trkpt lat="46.545080" lon="5.148120">
						<ele>189</ele>
						<time>2020-04-28T19:50:04Z</time>
					</trkpt>
					<trkpt lat="46.545270" lon="5.148250">
						<ele>188</ele>
						<time>2020-04-28T19:50:32Z</time>
					</trkpt>
					<trkpt lat="46.545500" lon="5.148380">
						<ele>186</ele>
						<time>2020-04-28T19:51:05Z</time>
					</trkpt>
					<trkpt lat="46.545630" lon="5.148470">
						<ele>186</ele>
						<time>2020-04-28T19:51:24Z</time>
					</trkpt>
					<trkpt lat="46.545820" lon="5.148630">
						<ele>184</ele>
						<time>2020-04-28T19:51:54Z</time>
					</trkpt>
					<trkpt lat="46.545890" lon="5.148730">
						<ele>184</ele>
						<time>2020-04-28T19:52:07Z</time>
					</trkpt>
					<trkpt lat="46.545930" lon="5.148800">
						<ele>184</ele>
						<time>2020-04-28T19:52:15Z</time>
					</trkpt>
					<trkpt lat="46.546110" lon="5.149040">
						<ele>183</ele>
						<time>2020-04-28T19:52:48Z</time>
					</trkpt>
					<trkpt lat="46.546180" lon="5.149130">
						<ele>183</ele>
						<time>2020-04-28T19:53:00Z</time>
					</trkpt>
					<trkpt lat="46.546350" lon="5.149380">
						<ele>183</ele>
						<time>2020-04-28T19:53:32Z</time>
					</trkpt>
					<trkpt lat="46.546450" lon="5.149530">
						<ele>183</ele>
						<time>2020-04-28T19:53:52Z</time>
					</trkpt>
					<trkpt lat="46.546510" lon="5.149570">
						<ele>183</ele>
						<time>2020-04-28T19:54:00Z</time>
					</trkpt>
					<trkpt lat="46.546590" lon="5.149610">
						<ele>183</ele>
						<time>2020-04-28T19:54:12Z</time>
					</trkpt>
					<trkpt lat="46.546680" lon="5.149580">
						<ele>183</ele>
						<time>2020-04-28T19:54:24Z</time>
					</trkpt>
					<trkpt lat="46.546780" lon="5.149490">
						<ele>183</ele>
						<time>2020-04-28T19:54:40Z</time>
					</trkpt>
					<trkpt lat="46.546900" lon="5.149480">
						<ele>183</ele>
						<time>2020-04-28T19:54:56Z</time>
					</trkpt>
					<trkpt lat="46.547010" lon="5.149480">
						<ele>183</ele>
						<time>2020-04-28T19:55:10Z</time>
					</trkpt>
					<trkpt lat="46.547100" lon="5.149520">
						<ele>183</ele>
						<time>2020-04-28T19:55:23Z</time>
					</trkpt>
					<trkpt lat="46.547170" lon="5.149630">
						<ele>183</ele>
						<time>2020-04-28T19:55:37Z</time>
					</trkpt>
					<trkpt lat="46.547400" lon="5.150080">
						<ele>184</ele>
						<time>2020-04-28T19:56:28Z</time>
					</trkpt>
					<trkpt lat="46.547410" lon="5.150160">
						<ele>184</ele>
						<time>2020-04-28T19:56:36Z</time>
					</trkpt>
					<trkpt lat="46.547350" lon="5.150280">
						<ele>184</ele>
						<time>2020-04-28T19:56:49Z</time>
					</trkpt>
					<trkpt lat="46.547270" lon="5.150360">
						<ele>185</ele>
						<time>2020-04-28T19:57:02Z</time>
					</trkpt>
					<trkpt lat="46.547160" lon="5.150440">
						<ele>185</ele>
						<time>2020-04-28T19:57:19Z</time>
					</trkpt>
					<trkpt lat="46.547080" lon="5.150530">
						<ele>185</ele>
						<time>2020-04-28T19:57:32Z</time>
					</trkpt>
					<trkpt lat="46.547010" lon="5.150660">
						<ele>185</ele>
						<time>2020-04-28T19:57:47Z</time>
					</trkpt>
					<trkpt lat="46.546980" lon="5.150770">
						<ele>185</ele>
						<time>2020-04-28T19:57:58Z</time>
					</trkpt>
					<trkpt lat="46.546970" lon="5.150890">
						<ele>185</ele>
						<time>2020-04-28T19:58:09Z</time>
					</trkpt>
					<trkpt lat="46.547000" lon="5.151250">
						<ele>186</ele>
						<time>2020-04-28T19:58:42Z</time>
					</trkpt>
					<trkpt lat="46.547030" lon="5.151340">
						<ele>186</ele>
						<time>2020-04-28T19:58:52Z</time>
					</trkpt>
					<trkpt lat="46.547360" lon="5.151540">
						<ele>187</ele>
						<time>2020-04-28T19:59:39Z</time>
					</trkpt>
					<trkpt lat="46.547600" lon="5.151670">
						<ele>188</ele>
						<time>2020-04-28T20:00:14Z</time>
					</trkpt>
					<trkpt lat="46.547880" lon="5.151870">
						<ele>189</ele>
						<time>2020-04-28T20:00:55Z</time>
					</trkpt>
					<trkpt lat="46.548100" lon="5.151950">
						<ele>190</ele>
						<time>2020-04-28T20:01:25Z</time>
					</trkpt>
					<trkpt lat="46.548260" lon="5.151880">
						<ele>191</ele>
						<time>2020-04-28T20:01:48Z</time>
					</trkpt>
					<trkpt lat="46.548340" lon="5.151880">
						<ele>191</ele>
						<time>2020-04-28T20:01:58Z</time>
					</trkpt>
					<trkpt lat="46.548430" lon="5.151980">
						<ele>192</ele>
						<time>2020-04-28T20:02:14Z</time>
					</trkpt>
					<trkpt lat="46.548570" lon="5.152160">
						<ele>192</ele>
						<time>2020-04-28T20:02:38Z</time>
					</trkpt>
					<trkpt lat="46.548850" lon="5.152410">
						<ele>193</ele>
						<time>2020-04-28T20:03:22Z</time>
					</trkpt>
					<trkpt lat="46.549040" lon="5.152650">
						<ele>194</ele>
						<time>2020-04-28T20:03:56Z</time>
					</trkpt>
					<trkpt lat="46.549350" lon="5.152890">
						<ele>194</ele>
						<time>2020-04-28T20:04:43Z</time>
					</trkpt>
					<trkpt lat="46.549500" lon="5.153020">
						<ele>195</ele>
						<time>2020-04-28T20:05:06Z</time>
					</trkpt>
					<trkpt lat="46.549760" lon="5.153250">
						<ele>195</ele>
						<time>2020-04-28T20:05:47Z</time>
					</trkpt>
					<trkpt lat="46.549910" lon="5.153340">
						<ele>196</ele>
						<time>2020-04-28T20:06:08Z</time>
					</trkpt>
					<trkpt lat="46.550010" lon="5.153380">
						<ele>196</ele>
						<time>2020-04-28T20:06:22Z</time>
					</trkpt>
					<trkpt lat="46.550510" lon="5.153470">
						<ele>196</ele>
						<time>2020-04-28T20:07:29Z</time>
					</trkpt>
					<trkpt lat="46.550800" lon="5.153460">
						<ele>197</ele>
						<time>2020-04-28T20:08:08Z</time>
					</trkpt>
					<trkpt lat="46.550870" lon="5.153470">
						<ele>197</ele>
						<time>2020-04-28T20:08:18Z</time>
					</trkpt>
					<trkpt lat="46.551050" lon="5.153560">
						<ele>197</ele>
						<time>2020-04-28T20:08:43Z</time>
					</trkpt>
					<trkpt lat="46.551120" lon="5.153620">
						<ele>197</ele>
						<time>2020-04-28T20:08:54Z</time>
					</trkpt>
					<trkpt lat="46.551200" lon="5.153720">
						<ele>198</ele>
						<time>2020-04-28T20:09:08Z</time>
					</trkpt>
					<trkpt lat="46.551240" lon="5.153810">
						<ele>198</ele>
						<time>2020-04-28T20:09:18Z</time>
					</trkpt>
					<trkpt lat="46.551340" lon="5.154070">
						<ele>198</ele>
						<time>2020-04-28T20:09:45Z</time>
					</trkpt>
					<trkpt lat="46.551420" lon="5.154260">
						<ele>198</ele>
						<time>2020-04-28T20:10:05Z</time>
					</trkpt>
					<trkpt lat="46.551430" lon="5.154340">
						<ele>198</ele>
						<time>2020-04-28T20:10:13Z</time>
					</trkpt>
					<trkpt lat="46.551420" lon="5.154380">
						<ele>197</ele>
						<time>2020-04-28T20:10:17Z</time>
					</trkpt>
					<trkpt lat="46.551410" lon="5.154440">
						<ele>197</ele>
						<time>2020-04-28T20:10:22Z</time>
					</trkpt>
					<trkpt lat="46.551370" lon="5.154590">
						<ele>197</ele>
						<time>2020-04-28T20:10:37Z</time>
					</trkpt>
					<trkpt lat="46.551160" lon="5.155390">
						<ele>194</ele>
						<time>2020-04-28T20:11:56Z</time>
					</trkpt>
					<trkpt lat="46.551050" lon="5.155700">
						<ele>193</ele>
						<time>2020-04-28T20:12:28Z</time>
					</trkpt>
					<trkpt lat="46.550950" lon="5.155960">
						<ele>193</ele>
						<time>2020-04-28T20:12:55Z</time>
					</trkpt>
					<trkpt lat="46.550870" lon="5.156190">
						<ele>192</ele>
						<time>2020-04-28T20:13:19Z</time>
					</trkpt>
					<trkpt lat="46.550710" lon="5.156760">
						<ele>190</ele>
						<time>2020-04-28T20:14:15Z</time>
					</trkpt>
					<trkpt lat="46.550680" lon="5.156990">
						<ele>189</ele>
						<time>2020-04-28T20:14:37Z</time>
					</trkpt>
					<trkpt lat="46.550680" lon="5.157060">
						<ele>189</ele>
						<time>2020-04-28T20:14:43Z</time>
					</trkpt>
					<trkpt lat="46.550730" lon="5.157110">
						<ele>189</ele>
						<time>2020-04-28T20:14:51Z</time>
					</trkpt>
					<trkpt lat="46.550890" lon="5.157210">
						<ele>189</ele>
						<time>2020-04-28T20:15:15Z</time>
					</trkpt>
					<trkpt lat="46.550930" lon="5.157260">
						<ele>189</ele>
						<time>2020-04-28T20:15:22Z</time>
					</trkpt>
					<trkpt lat="46.550970" lon="5.157340">
						<ele>188</ele>
						<time>2020-04-28T20:15:31Z</time>
					</trkpt>
					<trkpt lat="46.550950" lon="5.157480">
						<ele>188</ele>
						<time>2020-04-28T20:15:44Z</time>
					</trkpt>
					<trkpt lat="46.550910" lon="5.157600">
						<ele>188</ele>
						<time>2020-04-28T20:15:56Z</time>
					</trkpt>
					<trkpt lat="46.550760" lon="5.157930">
						<ele>186</ele>
						<time>2020-04-28T20:16:32Z</time>
					</trkpt>
					<trkpt lat="46.550620" lon="5.158270">
						<ele>184</ele>
						<time>2020-04-28T20:17:09Z</time>
					</trkpt>
					</trkseg>
				</trk>
			</gpx>